sensor_id;sensor_type;location;lat;lon;timestamp;P1;durP1;ratioP1;P2;durP2;ratioP2
4971;SDS011;2501;51.214;6.768;2022-10-04T00:02:26;19.95;;;9.13;;
4971;SDS011;2501;51.214;6.768;2022-10-04T00:04:58;14.38;;;8.80;;
4971;SDS011;2501;51.214;6.768;2022-10-04T00:07:32;16.60;;;9.20;;
4971;SDS011;2501;51.214;6.768;2022-10-04T00:10:05;16.52;;;9.27;;
4971;SDS011;2501;51.214;6.768;2022-10-04T00:12:46;15.93;;;7.80;;
4971;SDS011;2501;51.214;6.768;2022-10-04T00:15:20;13.07;;;8.40;;
4971;SDS011;2501;51.214;6.768;2022-10-04T00:17:59;18.80;;;8.90;;
4971;SDS011;2501;51.214;6.768;2022-10-04T00:23:29;19.50;;;9.35;;
4971;SDS011;2501;51.214;6.768;2022-10-04T00:29:28;22.92;;;9.40;;
4971;SDS011;2501;51.214;6.768;2022-10-04T00:34:58;16.70;;;8.90;;
4971;SDS011;2501;51.214;6.768;2022-10-04T00:37:26;21.42;;;9.50;;
4971;SDS011;2501;51.214;6.768;2022-10-04T00:40:15;22.33;;;9.93;;
4971;SDS011;2501;51.214;6.768;2022-10-04T00:42:49;16.98;;;9.20;;
4971;SDS011;2501;51.214;6.768;2022-10-04T00:51:16;23.20;;;9.80;;
4971;SDS011;2501;51.214;6.768;2022-10-04T00:53:53;15.20;;;8.13;;
4971;SDS011;2501;51.214;6.768;2022-10-04T00:56:29;19.67;;;8.20;;
4971;SDS011;2501;51.214;6.768;2022-10-04T01:02:00;14.70;;;8.90;;
4971;SDS011;2501;51.214;6.768;2022-10-04T01:04:38;19.20;;;8.67;;
4971;SDS011;2501;51.214;6.768;2022-10-04T01:07:10;19.13;;;8.10;;
4971;SDS011;2501;51.214;6.768;2022-10-04T01:09:45;18.85;;;7.57;;
4971;SDS011;2501;51.214;6.768;2022-10-04T01:12:22;19.10;;;8.60;;
4971;SDS011;2501;51.214;6.768;2022-10-04T01:15:02;19.23;;;7.85;;
4971;SDS011;2501;51.214;6.768;2022-10-04T01:17:34;15.13;;;8.50;;
4971;SDS011;2501;51.214;6.768;2022-10-04T01:20:12;19.08;;;7.60;;
4971;SDS011;2501;51.214;6.768;2022-10-04T01:23:01;23.20;;;8.27;;
4971;SDS011;2501;51.214;6.768;2022-10-04T01:25:44;16.58;;;8.45;;
4971;SDS011;2501;51.214;6.768;2022-10-04T01:28:14;15.65;;;7.95;;
4971;SDS011;2501;51.214;6.768;2022-10-04T01:30:43;14.07;;;7.60;;
4971;SDS011;2501;51.214;6.768;2022-10-04T01:33:12;12.60;;;7.60;;
4971;SDS011;2501;51.214;6.768;2022-10-04T01:35:41;13.20;;;7.63;;
4971;SDS011;2501;51.214;6.768;2022-10-04T01:38:12;17.73;;;7.38;;
4971;SDS011;2501;51.214;6.768;2022-10-04T01:40:41;16.10;;;7.77;;
4971;SDS011;2501;51.214;6.768;2022-10-04T01:43:16;14.70;;;7.45;;
4971;SDS011;2501;51.214;6.768;2022-10-04T01:45:52;15.13;;;7.90;;
4971;SDS011;2501;51.214;6.768;2022-10-04T01:48:28;16.23;;;7.45;;
4971;SDS011;2501;51.214;6.768;2022-10-04T01:51:04;19.52;;;8.80;;
4971;SDS011;2501;51.214;6.768;2022-10-04T01:53:39;11.55;;;7.90;;
4971;SDS011;2501;51.214;6.768;2022-10-04T01:56:14;13.73;;;7.95;;
4971;SDS011;2501;51.214;6.768;2022-10-04T01:58:46;15.13;;;8.60;;
4971;SDS011;2501;51.214;6.768;2022-10-04T02:01:18;20.33;;;8.23;;
4971;SDS011;2501;51.214;6.768;2022-10-04T02:03:53;17.17;;;8.25;;
4971;SDS011;2501;51.214;6.768;2022-10-04T02:06:26;15.95;;;9.02;;
4971;SDS011;2501;51.214;6.768;2022-10-04T02:09:00;20.20;;;9.45;;
4971;SDS011;2501;51.214;6.768;2022-10-04T02:11:34;19.58;;;8.73;;
4971;SDS011;2501;51.214;6.768;2022-10-04T02:14:06;14.20;;;8.30;;
4971;SDS011;2501;51.214;6.768;2022-10-04T02:16:40;18.30;;;8.75;;
4971;SDS011;2501;51.214;6.768;2022-10-04T02:19:11;15.25;;;8.75;;
4971;SDS011;2501;51.214;6.768;2022-10-04T02:21:40;13.30;;;8.20;;
4971;SDS011;2501;51.214;6.768;2022-10-04T02:24:12;17.15;;;8.15;;
4971;SDS011;2501;51.214;6.768;2022-10-04T02:26:41;18.85;;;8.95;;
4971;SDS011;2501;51.214;6.768;2022-10-04T02:29:09;22.60;;;8.40;;
4971;SDS011;2501;51.214;6.768;2022-10-04T02:31:38;22.65;;;8.80;;
4971;SDS011;2501;51.214;6.768;2022-10-04T02:34:19;14.48;;;8.07;;
4971;SDS011;2501;51.214;6.768;2022-10-04T02:36:48;17.15;;;9.00;;
4971;SDS011;2501;51.214;6.768;2022-10-04T02:39:20;16.40;;;9.05;;
4971;SDS011;2501;51.214;6.768;2022-10-04T02:41:53;16.80;;;8.77;;
4971;SDS011;2501;51.214;6.768;2022-10-04T02:44:27;17.77;;;8.88;;
4971;SDS011;2501;51.214;6.768;2022-10-04T02:47:05;17.65;;;8.73;;
4971;SDS011;2501;51.214;6.768;2022-10-04T02:49:36;14.07;;;8.10;;
4971;SDS011;2501;51.214;6.768;2022-10-04T02:52:11;19.15;;;9.10;;
4971;SDS011;2501;51.214;6.768;2022-10-04T02:54:47;21.45;;;8.82;;
4971;SDS011;2501;51.214;6.768;2022-10-04T02:57:19;19.83;;;8.68;;
4971;SDS011;2501;51.214;6.768;2022-10-04T02:59:50;16.02;;;9.00;;
4971;SDS011;2501;51.214;6.768;2022-10-04T03:02:29;14.40;;;8.70;;
4971;SDS011;2501;51.214;6.768;2022-10-04T03:04:59;14.35;;;8.23;;
4971;SDS011;2501;51.214;6.768;2022-10-04T03:07:31;20.35;;;8.02;;
4971;SDS011;2501;51.214;6.768;2022-10-04T03:10:04;20.52;;;8.90;;
4971;SDS011;2501;51.214;6.768;2022-10-04T03:12:36;17.33;;;8.37;;
4971;SDS011;2501;51.214;6.768;2022-10-04T03:15:05;20.70;;;8.43;;
4971;SDS011;2501;51.214;6.768;2022-10-04T03:17:36;16.80;;;9.00;;
4971;SDS011;2501;51.214;6.768;2022-10-04T03:20:07;13.10;;;8.32;;
4971;SDS011;2501;51.214;6.768;2022-10-04T03:22:40;17.30;;;7.85;;
4971;SDS011;2501;51.214;6.768;2022-10-04T03:25:16;12.65;;;7.90;;
4971;SDS011;2501;51.214;6.768;2022-10-04T03:27:48;13.20;;;8.40;;
4971;SDS011;2501;51.214;6.768;2022-10-04T03:30:18;17.55;;;8.00;;
4971;SDS011;2501;51.214;6.768;2022-10-04T03:32:47;17.17;;;9.05;;
4971;SDS011;2501;51.214;6.768;2022-10-04T03:35:19;15.88;;;8.50;;
4971;SDS011;2501;51.214;6.768;2022-10-04T03:37:57;17.25;;;8.95;;
4971;SDS011;2501;51.214;6.768;2022-10-04T03:40:30;14.80;;;8.85;;
4971;SDS011;2501;51.214;6.768;2022-10-04T03:43:00;14.70;;;9.10;;
4971;SDS011;2501;51.214;6.768;2022-10-04T03:45:32;16.70;;;8.20;;
4971;SDS011;2501;51.214;6.768;2022-10-04T03:48:02;15.30;;;8.10;;
4971;SDS011;2501;51.214;6.768;2022-10-04T03:50:34;22.97;;;8.87;;
4971;SDS011;2501;51.214;6.768;2022-10-04T03:53:07;16.00;;;9.30;;
4971;SDS011;2501;51.214;6.768;2022-10-04T03:55:42;17.57;;;9.10;;
4971;SDS011;2501;51.214;6.768;2022-10-04T03:58:12;18.33;;;8.60;;
4971;SDS011;2501;51.214;6.768;2022-10-04T04:00:44;13.30;;;8.33;;
4971;SDS011;2501;51.214;6.768;2022-10-04T04:03:25;24.23;;;9.43;;
4971;SDS011;2501;51.214;6.768;2022-10-04T04:05:59;16.35;;;8.35;;
4971;SDS011;2501;51.214;6.768;2022-10-04T04:08:38;13.15;;;8.52;;
4971;SDS011;2501;51.214;6.768;2022-10-04T04:11:13;16.20;;;9.63;;
4971;SDS011;2501;51.214;6.768;2022-10-04T04:13:46;18.57;;;8.40;;
4971;SDS011;2501;51.214;6.768;2022-10-04T04:16:19;15.88;;;8.95;;
4971;SDS011;2501;51.214;6.768;2022-10-04T04:18:51;19.63;;;8.35;;
4971;SDS011;2501;51.214;6.768;2022-10-04T04:21:21;13.43;;;8.10;;
4971;SDS011;2501;51.214;6.768;2022-10-04T04:23:53;14.48;;;7.45;;
4971;SDS011;2501;51.214;6.768;2022-10-04T04:26:28;19.05;;;8.85;;
4971;SDS011;2501;51.214;6.768;2022-10-04T04:29:05;19.17;;;7.70;;
4971;SDS011;2501;51.214;6.768;2022-10-04T04:31:37;15.57;;;8.30;;
4971;SDS011;2501;51.214;6.768;2022-10-04T04:34:19;14.07;;;8.38;;
4971;SDS011;2501;51.214;6.768;2022-10-04T04:36:49;15.30;;;7.73;;
4971;SDS011;2501;51.214;6.768;2022-10-04T04:39:21;16.30;;;8.57;;
4971;SDS011;2501;51.214;6.768;2022-10-04T04:42:09;18.00;;;8.90;;
4971;SDS011;2501;51.214;6.768;2022-10-04T04:44:45;12.57;;;7.60;;
4971;SDS011;2501;51.214;6.768;2022-10-04T04:47:25;15.95;;;8.10;;
4971;SDS011;2501;51.214;6.768;2022-10-04T04:49:57;16.33;;;9.00;;
4971;SDS011;2501;51.214;6.768;2022-10-04T04:52:31;14.03;;;8.50;;
4971;SDS011;2501;51.214;6.768;2022-10-04T04:55:01;11.73;;;8.63;;
4971;SDS011;2501;51.214;6.768;2022-10-04T04:57:33;20.33;;;8.10;;
4971;SDS011;2501;51.214;6.768;2022-10-04T05:00:06;13.88;;;8.70;;
4971;SDS011;2501;51.214;6.768;2022-10-04T05:02:49;15.63;;;8.95;;
4971;SDS011;2501;51.214;6.768;2022-10-04T05:05:20;15.05;;;9.07;;
4971;SDS011;2501;51.214;6.768;2022-10-04T05:08:02;17.77;;;8.55;;
4971;SDS011;2501;51.214;6.768;2022-10-04T05:10:38;12.82;;;7.30;;
4971;SDS011;2501;51.214;6.768;2022-10-04T05:13:12;17.40;;;8.90;;
4971;SDS011;2501;51.214;6.768;2022-10-04T05:15:44;18.80;;;8.85;;
4971;SDS011;2501;51.214;6.768;2022-10-04T05:18:21;13.73;;;8.38;;
4971;SDS011;2501;51.214;6.768;2022-10-04T05:21:01;17.55;;;9.75;;
4971;SDS011;2501;51.214;6.768;2022-10-04T05:23:32;18.90;;;9.40;;
4971;SDS011;2501;51.214;6.768;2022-10-04T05:26:01;20.63;;;9.10;;
4971;SDS011;2501;51.214;6.768;2022-10-04T05:28:34;20.85;;;9.00;;
4971;SDS011;2501;51.214;6.768;2022-10-04T05:31:10;17.47;;;8.63;;
4971;SDS011;2501;51.214;6.768;2022-10-04T05:33:50;26.70;;;13.05;;
4971;SDS011;2501;51.214;6.768;2022-10-04T05:36:30;17.95;;;9.70;;
4971;SDS011;2501;51.214;6.768;2022-10-04T05:39:12;16.15;;;8.50;;
4971;SDS011;2501;51.214;6.768;2022-10-04T05:41:50;20.55;;;9.52;;
4971;SDS011;2501;51.214;6.768;2022-10-04T05:44:27;19.50;;;8.82;;
4971;SDS011;2501;51.214;6.768;2022-10-04T05:47:00;16.30;;;7.67;;
4971;SDS011;2501;51.214;6.768;2022-10-04T05:49:33;16.63;;;10.10;;
4971;SDS011;2501;51.214;6.768;2022-10-04T05:52:12;33.33;;;15.30;;
4971;SDS011;2501;51.214;6.768;2022-10-04T05:54:42;19.42;;;10.20;;
4971;SDS011;2501;51.214;6.768;2022-10-04T05:57:24;16.17;;;9.45;;
4971;SDS011;2501;51.214;6.768;2022-10-04T06:00:12;17.60;;;9.80;;
4971;SDS011;2501;51.214;6.768;2022-10-04T06:05:51;14.35;;;8.40;;
4971;SDS011;2501;51.214;6.768;2022-10-04T06:08:24;13.25;;;8.20;;
4971;SDS011;2501;51.214;6.768;2022-10-04T06:11:03;14.32;;;9.57;;
4971;SDS011;2501;51.214;6.768;2022-10-04T06:13:47;18.15;;;9.50;;
4971;SDS011;2501;51.214;6.768;2022-10-04T06:16:41;14.05;;;9.43;;
4971;SDS011;2501;51.214;6.768;2022-10-04T06:19:25;18.02;;;9.38;;
4971;SDS011;2501;51.214;6.768;2022-10-04T06:22:09;15.98;;;11.07;;
4971;SDS011;2501;51.214;6.768;2022-10-04T06:24:43;25.42;;;10.23;;
4971;SDS011;2501;51.214;6.768;2022-10-04T06:27:17;22.40;;;10.90;;
4971;SDS011;2501;51.214;6.768;2022-10-04T06:29:51;20.08;;;11.00;;
4971;SDS011;2501;51.214;6.768;2022-10-04T06:32:30;17.08;;;10.50;;
4971;SDS011;2501;51.214;6.768;2022-10-04T06:35:22;19.77;;;10.70;;
4971;SDS011;2501;51.214;6.768;2022-10-04T06:38:25;17.70;;;9.93;;
4971;SDS011;2501;51.214;6.768;2022-10-04T06:41:16;19.73;;;9.70;;
4971;SDS011;2501;51.214;6.768;2022-10-04T06:44:12;16.15;;;10.13;;
4971;SDS011;2501;51.214;6.768;2022-10-04T06:46:57;15.70;;;10.00;;
4971;SDS011;2501;51.214;6.768;2022-10-04T06:49:37;24.07;;;9.93;;
4971;SDS011;2501;51.214;6.768;2022-10-04T06:52:24;20.50;;;11.25;;
4971;SDS011;2501;51.214;6.768;2022-10-04T06:55:01;17.73;;;11.10;;
4971;SDS011;2501;51.214;6.768;2022-10-04T06:57:51;24.77;;;13.40;;
4971;SDS011;2501;51.214;6.768;2022-10-04T07:00:53;16.48;;;10.50;;
4971;SDS011;2501;51.214;6.768;2022-10-04T07:03:26;16.90;;;10.73;;
4971;SDS011;2501;51.214;6.768;2022-10-04T07:06:04;22.67;;;10.17;;
4971;SDS011;2501;51.214;6.768;2022-10-04T07:08:36;13.88;;;9.80;;
4971;SDS011;2501;51.214;6.768;2022-10-04T07:11:11;24.60;;;10.60;;
4971;SDS011;2501;51.214;6.768;2022-10-04T07:13:43;15.48;;;9.63;;
4971;SDS011;2501;51.214;6.768;2022-10-04T07:16:28;14.80;;;9.65;;
4971;SDS011;2501;51.214;6.768;2022-10-04T07:19:07;16.88;;;8.88;;
4971;SDS011;2501;51.214;6.768;2022-10-04T07:21:56;17.80;;;8.60;;
4971;SDS011;2501;51.214;6.768;2022-10-04T07:24:36;18.20;;;9.32;;
4971;SDS011;2501;51.214;6.768;2022-10-04T07:27:12;19.60;;;8.90;;
4971;SDS011;2501;51.214;6.768;2022-10-04T07:29:45;16.17;;;9.43;;
4971;SDS011;2501;51.214;6.768;2022-10-04T07:32:19;15.35;;;9.85;;
4971;SDS011;2501;51.214;6.768;2022-10-04T07:34:51;15.88;;;9.35;;
4971;SDS011;2501;51.214;6.768;2022-10-04T07:37:28;22.55;;;12.50;;
4971;SDS011;2501;51.214;6.768;2022-10-04T07:40:03;20.15;;;10.63;;
4971;SDS011;2501;51.214;6.768;2022-10-04T07:42:37;19.35;;;10.13;;
4971;SDS011;2501;51.214;6.768;2022-10-04T07:45:15;16.83;;;9.73;;
4971;SDS011;2501;51.214;6.768;2022-10-04T07:47:46;17.98;;;9.80;;
4971;SDS011;2501;51.214;6.768;2022-10-04T07:50:21;18.00;;;10.05;;
4971;SDS011;2501;51.214;6.768;2022-10-04T07:52:59;17.67;;;9.18;;
4971;SDS011;2501;51.214;6.768;2022-10-04T07:55:36;17.50;;;10.60;;
4971;SDS011;2501;51.214;6.768;2022-10-04T07:58:19;18.33;;;9.57;;
4971;SDS011;2501;51.214;6.768;2022-10-04T08:00:56;15.47;;;10.00;;
4971;SDS011;2501;51.214;6.768;2022-10-04T08:06:30;17.48;;;10.30;;
4971;SDS011;2501;51.214;6.768;2022-10-04T08:09:09;16.75;;;9.60;;
4971;SDS011;2501;51.214;6.768;2022-10-04T08:11:53;16.58;;;9.60;;
4971;SDS011;2501;51.214;6.768;2022-10-04T08:14:33;19.58;;;10.82;;
4971;SDS011;2501;51.214;6.768;2022-10-04T08:17:19;14.18;;;9.77;;
4971;SDS011;2501;51.214;6.768;2022-10-04T08:20:00;15.55;;;9.98;;
4971;SDS011;2501;51.214;6.768;2022-10-04T08:22:42;17.80;;;10.43;;
4971;SDS011;2501;51.214;6.768;2022-10-04T08:25:23;16.17;;;9.75;;
4971;SDS011;2501;51.214;6.768;2022-10-04T08:28:00;17.13;;;10.75;;
4971;SDS011;2501;51.214;6.768;2022-10-04T08:30:53;21.02;;;11.80;;
4971;SDS011;2501;51.214;6.768;2022-10-04T08:33:35;19.30;;;11.38;;
4971;SDS011;2501;51.214;6.768;2022-10-04T08:36:23;16.02;;;10.70;;
4971;SDS011;2501;51.214;6.768;2022-10-04T08:39:01;17.45;;;10.35;;
4971;SDS011;2501;51.214;6.768;2022-10-04T08:45:04;19.02;;;9.50;;
4971;SDS011;2501;51.214;6.768;2022-10-04T08:47:55;13.70;;;8.75;;
4971;SDS011;2501;51.214;6.768;2022-10-04T08:50:57;14.52;;;9.30;;
4971;SDS011;2501;51.214;6.768;2022-10-04T08:56:54;17.23;;;9.50;;
4971;SDS011;2501;51.214;6.768;2022-10-04T08:59:34;16.27;;;9.40;;
4971;SDS011;2501;51.214;6.768;2022-10-04T09:05:48;19.30;;;10.03;;
4971;SDS011;2501;51.214;6.768;2022-10-04T09:08:37;17.27;;;9.80;;
4971;SDS011;2501;51.214;6.768;2022-10-04T09:11:36;14.20;;;8.95;;
4971;SDS011;2501;51.214;6.768;2022-10-04T09:14:28;18.60;;;9.18;;
4971;SDS011;2501;51.214;6.768;2022-10-04T09:17:18;14.90;;;8.90;;
4971;SDS011;2501;51.214;6.768;2022-10-04T09:19:54;14.70;;;9.00;;
4971;SDS011;2501;51.214;6.768;2022-10-04T09:22:44;18.13;;;9.05;;
4971;SDS011;2501;51.214;6.768;2022-10-04T09:25:23;15.75;;;9.07;;
4971;SDS011;2501;51.214;6.768;2022-10-04T09:31:35;16.92;;;9.32;;
4971;SDS011;2501;51.214;6.768;2022-10-04T09:34:29;12.50;;;8.30;;
4971;SDS011;2501;51.214;6.768;2022-10-04T09:43:28;13.30;;;8.10;;
4971;SDS011;2501;51.214;6.768;2022-10-04T09:49:19;16.63;;;8.52;;
4971;SDS011;2501;51.214;6.768;2022-10-04T09:52:08;19.40;;;9.00;;
4971;SDS011;2501;51.214;6.768;2022-10-04T09:54:53;13.82;;;9.02;;
4971;SDS011;2501;51.214;6.768;2022-10-04T09:57:38;11.80;;;8.57;;
4971;SDS011;2501;51.214;6.768;2022-10-04T10:00:22;17.20;;;10.00;;
4971;SDS011;2501;51.214;6.768;2022-10-04T10:03:11;17.75;;;9.10;;
4971;SDS011;2501;51.214;6.768;2022-10-04T10:09:13;16.80;;;8.30;;
4971;SDS011;2501;51.214;6.768;2022-10-04T10:12:18;15.63;;;8.32;;
4971;SDS011;2501;51.214;6.768;2022-10-04T10:15:17;11.90;;;8.50;;
4971;SDS011;2501;51.214;6.768;2022-10-04T10:17:54;12.00;;;7.70;;
4971;SDS011;2501;51.214;6.768;2022-10-04T10:26:40;19.02;;;8.70;;
4971;SDS011;2501;51.214;6.768;2022-10-04T10:29:25;13.40;;;6.70;;
4971;SDS011;2501;51.214;6.768;2022-10-04T10:35:15;9.52;;;7.20;;
4971;SDS011;2501;51.214;6.768;2022-10-04T10:41:06;9.63;;;6.57;;
4971;SDS011;2501;51.214;6.768;2022-10-04T10:43:58;12.07;;;7.10;;
4971;SDS011;2501;51.214;6.768;2022-10-04T10:46:53;21.98;;;7.32;;
4971;SDS011;2501;51.214;6.768;2022-10-04T10:49:40;16.80;;;6.30;;
4971;SDS011;2501;51.214;6.768;2022-10-04T10:52:40;11.02;;;6.82;;
4971;SDS011;2501;51.214;6.768;2022-10-04T10:55:41;13.27;;;6.70;;
4971;SDS011;2501;51.214;6.768;2022-10-04T10:58:48;10.15;;;5.30;;
4971;SDS011;2501;51.214;6.768;2022-10-04T11:04:42;12.02;;;5.82;;
4971;SDS011;2501;51.214;6.768;2022-10-04T11:07:34;9.85;;;5.50;;
4971;SDS011;2501;51.214;6.768;2022-10-04T11:16:34;11.10;;;5.60;;
4971;SDS011;2501;51.214;6.768;2022-10-04T11:28:26;17.15;;;7.20;;
4971;SDS011;2501;51.214;6.768;2022-10-04T11:37:29;10.90;;;6.45;;
4971;SDS011;2501;51.214;6.768;2022-10-04T11:40:14;11.45;;;6.10;;
4971;SDS011;2501;51.214;6.768;2022-10-04T11:43:14;9.60;;;5.93;;
4971;SDS011;2501;51.214;6.768;2022-10-04T11:46:09;13.20;;;6.20;;
4971;SDS011;2501;51.214;6.768;2022-10-04T11:48:49;11.73;;;5.70;;
4971;SDS011;2501;51.214;6.768;2022-10-04T11:57:42;6.57;;;5.30;;
4971;SDS011;2501;51.214;6.768;2022-10-04T12:00:19;15.38;;;5.10;;
4971;SDS011;2501;51.214;6.768;2022-10-04T12:02:59;9.63;;;5.38;;
4971;SDS011;2501;51.214;6.768;2022-10-04T12:08:49;14.15;;;7.40;;
4971;SDS011;2501;51.214;6.768;2022-10-04T12:14:58;9.40;;;4.97;;
4971;SDS011;2501;51.214;6.768;2022-10-04T12:17:55;9.15;;;4.82;;
4971;SDS011;2501;51.214;6.768;2022-10-04T12:23:51;14.80;;;4.60;;
4971;SDS011;2501;51.214;6.768;2022-10-04T12:26:40;10.65;;;5.85;;
4971;SDS011;2501;51.214;6.768;2022-10-04T12:32:31;7.82;;;4.30;;
4971;SDS011;2501;51.214;6.768;2022-10-04T12:35:11;6.90;;;4.30;;
4971;SDS011;2501;51.214;6.768;2022-10-04T12:38:04;11.32;;;4.88;;
4971;SDS011;2501;51.214;6.768;2022-10-04T12:40:42;13.13;;;4.55;;
4971;SDS011;2501;51.214;6.768;2022-10-04T12:43:19;6.10;;;4.28;;
4971;SDS011;2501;51.214;6.768;2022-10-04T12:45:58;10.00;;;4.95;;
4971;SDS011;2501;51.214;6.768;2022-10-04T12:48:45;13.65;;;7.50;;
4971;SDS011;2501;51.214;6.768;2022-10-04T12:54:27;12.07;;;6.10;;
4971;SDS011;2501;51.214;6.768;2022-10-04T12:57:12;11.07;;;4.60;;
4971;SDS011;2501;51.214;6.768;2022-10-04T12:59:57;10.18;;;4.88;;
4971;SDS011;2501;51.214;6.768;2022-10-04T13:02:40;9.45;;;4.80;;
4971;SDS011;2501;51.214;6.768;2022-10-04T13:05:29;8.65;;;4.10;;
4971;SDS011;2501;51.214;6.768;2022-10-04T13:08:09;9.15;;;4.63;;
4971;SDS011;2501;51.214;6.768;2022-10-04T13:10:51;11.20;;;4.60;;
4971;SDS011;2501;51.214;6.768;2022-10-04T13:13:50;5.80;;;4.45;;
4971;SDS011;2501;51.214;6.768;2022-10-04T13:16:35;10.40;;;5.20;;
4971;SDS011;2501;51.214;6.768;2022-10-04T13:19:15;7.00;;;4.67;;
4971;SDS011;2501;51.214;6.768;2022-10-04T13:24:48;10.68;;;4.68;;
4971;SDS011;2501;51.214;6.768;2022-10-04T13:27:30;7.68;;;4.35;;
4971;SDS011;2501;51.214;6.768;2022-10-04T13:30:06;4.75;;;4.25;;
4971;SDS011;2501;51.214;6.768;2022-10-04T13:32:50;10.63;;;4.13;;
4971;SDS011;2501;51.214;6.768;2022-10-04T13:35:28;6.30;;;3.97;;
4971;SDS011;2501;51.214;6.768;2022-10-04T13:41:18;12.00;;;4.40;;
4971;SDS011;2501;51.214;6.768;2022-10-04T13:47:24;16.33;;;4.20;;
4971;SDS011;2501;51.214;6.768;2022-10-04T13:50:09;9.05;;;4.50;;
4971;SDS011;2501;51.214;6.768;2022-10-04T13:52:55;9.75;;;4.80;;
4971;SDS011;2501;51.214;6.768;2022-10-04T13:55:51;8.47;;;4.30;;
4971;SDS011;2501;51.214;6.768;2022-10-04T13:58:44;9.10;;;4.40;;
4971;SDS011;2501;51.214;6.768;2022-10-04T14:04:12;9.47;;;4.80;;
4971;SDS011;2501;51.214;6.768;2022-10-04T14:09:54;15.02;;;4.65;;
4971;SDS011;2501;51.214;6.768;2022-10-04T14:12:36;10.60;;;4.65;;
4971;SDS011;2501;51.214;6.768;2022-10-04T14:15:28;7.93;;;3.90;;
4971;SDS011;2501;51.214;6.768;2022-10-04T14:18:16;9.68;;;3.88;;
4971;SDS011;2501;51.214;6.768;2022-10-04T14:21:16;9.18;;;4.00;;
4971;SDS011;2501;51.214;6.768;2022-10-04T14:27:17;11.65;;;4.25;;
4971;SDS011;2501;51.214;6.768;2022-10-04T14:30:05;7.63;;;4.13;;
4971;SDS011;2501;51.214;6.768;2022-10-04T14:32:55;7.43;;;4.10;;
4971;SDS011;2501;51.214;6.768;2022-10-04T14:35:42;8.37;;;4.07;;
4971;SDS011;2501;51.214;6.768;2022-10-04T14:47:21;8.73;;;4.40;;
4971;SDS011;2501;51.214;6.768;2022-10-04T14:50:14;20.17;;;11.68;;
4971;SDS011;2501;51.214;6.768;2022-10-04T14:53:00;9.43;;;4.70;;
4971;SDS011;2501;51.214;6.768;2022-10-04T14:55:47;14.00;;;5.88;;
4971;SDS011;2501;51.214;6.768;2022-10-04T14:58:32;8.93;;;4.38;;
4971;SDS011;2501;51.214;6.768;2022-10-04T15:01:14;8.80;;;4.43;;
4971;SDS011;2501;51.214;6.768;2022-10-04T15:03:52;4.67;;;4.23;;
4971;SDS011;2501;51.214;6.768;2022-10-04T15:06:42;6.32;;;4.53;;
4971;SDS011;2501;51.214;6.768;2022-10-04T15:09:18;9.15;;;4.15;;
4971;SDS011;2501;51.214;6.768;2022-10-04T15:11:59;7.35;;;4.00;;
4971;SDS011;2501;51.214;6.768;2022-10-04T15:14:59;8.48;;;4.20;;
4971;SDS011;2501;51.214;6.768;2022-10-04T15:17:53;7.53;;;4.20;;
4971;SDS011;2501;51.214;6.768;2022-10-04T15:20:27;14.43;;;4.50;;
4971;SDS011;2501;51.214;6.768;2022-10-04T15:23:17;8.83;;;4.67;;
4971;SDS011;2501;51.214;6.768;2022-10-04T15:25:58;11.93;;;5.00;;
4971;SDS011;2501;51.214;6.768;2022-10-04T15:31:25;11.20;;;4.35;;
4971;SDS011;2501;51.214;6.768;2022-10-04T15:34:02;6.85;;;4.10;;
4971;SDS011;2501;51.214;6.768;2022-10-04T15:36:45;14.82;;;4.95;;
4971;SDS011;2501;51.214;6.768;2022-10-04T15:42:28;8.82;;;5.93;;
4971;SDS011;2501;51.214;6.768;2022-10-04T15:45:03;6.68;;;4.80;;
4971;SDS011;2501;51.214;6.768;2022-10-04T15:47:53;13.00;;;5.60;;
4971;SDS011;2501;51.214;6.768;2022-10-04T15:50:33;16.25;;;7.10;;
4971;SDS011;2501;51.214;6.768;2022-10-04T15:56:12;7.80;;;4.13;;
4971;SDS011;2501;51.214;6.768;2022-10-04T15:58:51;5.72;;;3.70;;
4971;SDS011;2501;51.214;6.768;2022-10-04T16:01:35;8.38;;;3.70;;
4971;SDS011;2501;51.214;6.768;2022-10-04T16:07:18;11.15;;;5.57;;
4971;SDS011;2501;51.214;6.768;2022-10-04T16:10:01;9.05;;;4.90;;
4971;SDS011;2501;51.214;6.768;2022-10-04T16:12:54;9.13;;;5.25;;
4971;SDS011;2501;51.214;6.768;2022-10-04T16:15:45;9.00;;;4.70;;
4971;SDS011;2501;51.214;6.768;2022-10-04T16:21:09;18.67;;;7.82;;
4971;SDS011;2501;51.214;6.768;2022-10-04T16:23:45;10.95;;;5.10;;
4971;SDS011;2501;51.214;6.768;2022-10-04T16:27:02;15.30;;;7.50;;
4971;SDS011;2501;51.214;6.768;2022-10-04T16:29:25;8.63;;;5.80;;
4971;SDS011;2501;51.214;6.768;2022-10-04T16:32:08;8.18;;;4.90;;
4971;SDS011;2501;51.214;6.768;2022-10-04T16:34:45;16.02;;;6.70;;
4971;SDS011;2501;51.214;6.768;2022-10-04T16:37:25;12.13;;;6.88;;
4971;SDS011;2501;51.214;6.768;2022-10-04T16:40:00;13.75;;;7.35;;
4971;SDS011;2501;51.214;6.768;2022-10-04T16:42:47;19.97;;;9.80;;
4971;SDS011;2501;51.214;6.768;2022-10-04T16:51:26;13.15;;;6.22;;
4971;SDS011;2501;51.214;6.768;2022-10-04T16:54:33;14.53;;;6.77;;
4971;SDS011;2501;51.214;6.768;2022-10-04T16:59:56;10.10;;;6.40;;
4971;SDS011;2501;51.214;6.768;2022-10-04T17:08:37;23.53;;;10.27;;
4971;SDS011;2501;51.214;6.768;2022-10-04T17:17:23;16.23;;;8.38;;
4971;SDS011;2501;51.214;6.768;2022-10-04T17:20:09;13.60;;;8.15;;
4971;SDS011;2501;51.214;6.768;2022-10-04T17:22:48;12.55;;;7.03;;
4971;SDS011;2501;51.214;6.768;2022-10-04T17:25:28;13.73;;;6.65;;
4971;SDS011;2501;51.214;6.768;2022-10-04T17:28:10;11.18;;;7.18;;
4971;SDS011;2501;51.214;6.768;2022-10-04T17:30:53;11.82;;;6.30;;
4971;SDS011;2501;51.214;6.768;2022-10-04T17:33:31;14.60;;;6.93;;
4971;SDS011;2501;51.214;6.768;2022-10-04T17:36:13;17.80;;;6.63;;
4971;SDS011;2501;51.214;6.768;2022-10-04T17:38:57;12.60;;;6.57;;
4971;SDS011;2501;51.214;6.768;2022-10-04T17:41:36;13.40;;;7.20;;
4971;SDS011;2501;51.214;6.768;2022-10-04T17:44:24;24.13;;;12.18;;
4971;SDS011;2501;51.214;6.768;2022-10-04T17:47:13;39.20;;;14.90;;
4971;SDS011;2501;51.214;6.768;2022-10-04T17:49:50;20.17;;;8.80;;
4971;SDS011;2501;51.214;6.768;2022-10-04T17:52:45;17.27;;;10.05;;
4971;SDS011;2501;51.214;6.768;2022-10-04T17:55:32;13.73;;;7.57;;
4971;SDS011;2501;51.214;6.768;2022-10-04T17:58:11;16.77;;;9.02;;
4971;SDS011;2501;51.214;6.768;2022-10-04T18:03:34;12.77;;;7.00;;
4971;SDS011;2501;51.214;6.768;2022-10-04T18:06:10;14.60;;;8.15;;
4971;SDS011;2501;51.214;6.768;2022-10-04T18:08:49;18.53;;;7.33;;
4971;SDS011;2501;51.214;6.768;2022-10-04T18:11:22;17.33;;;7.80;;
4971;SDS011;2501;51.214;6.768;2022-10-04T18:13:59;16.17;;;8.32;;
4971;SDS011;2501;51.214;6.768;2022-10-04T18:16:40;13.05;;;7.97;;
4971;SDS011;2501;51.214;6.768;2022-10-04T18:19:28;17.23;;;6.85;;
4971;SDS011;2501;51.214;6.768;2022-10-04T18:22:03;22.63;;;10.45;;
4971;SDS011;2501;51.214;6.768;2022-10-04T18:24:42;33.60;;;14.05;;
4971;SDS011;2501;51.214;6.768;2022-10-04T18:27:13;14.45;;;8.23;;
4971;SDS011;2501;51.214;6.768;2022-10-04T18:29:54;15.05;;;7.00;;
4971;SDS011;2501;51.214;6.768;2022-10-04T18:32:30;10.85;;;6.65;;
4971;SDS011;2501;51.214;6.768;2022-10-04T18:35:01;15.40;;;7.30;;
4971;SDS011;2501;51.214;6.768;2022-10-04T18:37:54;35.47;;;14.90;;
4971;SDS011;2501;51.214;6.768;2022-10-04T18:40:30;20.13;;;9.27;;
4971;SDS011;2501;51.214;6.768;2022-10-04T18:43:00;24.13;;;11.25;;
4971;SDS011;2501;51.214;6.768;2022-10-04T18:45:29;10.48;;;6.72;;
4971;SDS011;2501;51.214;6.768;2022-10-04T18:47:59;12.15;;;5.93;;
4971;SDS011;2501;51.214;6.768;2022-10-04T18:50:31;13.88;;;5.97;;
4971;SDS011;2501;51.214;6.768;2022-10-04T18:53:15;13.10;;;6.53;;
4971;SDS011;2501;51.214;6.768;2022-10-04T18:56:12;16.73;;;6.13;;
4971;SDS011;2501;51.214;6.768;2022-10-04T18:58:55;28.75;;;10.75;;
4971;SDS011;2501;51.214;6.768;2022-10-04T19:01:46;15.20;;;4.80;;
4971;SDS011;2501;51.214;6.768;2022-10-04T19:04:37;17.13;;;7.38;;
4971;SDS011;2501;51.214;6.768;2022-10-04T19:07:13;19.42;;;7.22;;
4971;SDS011;2501;51.214;6.768;2022-10-04T19:09:50;24.65;;;8.13;;
4971;SDS011;2501;51.214;6.768;2022-10-04T19:12:42;24.45;;;10.25;;
4971;SDS011;2501;51.214;6.768;2022-10-04T19:15:21;22.83;;;8.40;;
4971;SDS011;2501;51.214;6.768;2022-10-04T19:18:03;19.35;;;6.70;;